sensor_id;sensor_type;location;lat;lon;timestamp;temperature;humidity
9544;DHT22;30418;51.45933468;7.33152330;2023-07-29T00:00:27;23.10;77.20
9544;DHT22;30418;51.45933468;7.33152330;2023-07-29T00:02:58;23.10;77.20
9544;DHT22;30418;51.45933468;7.33152330;2023-07-29T00:05:27;23.10;77.20
9544;DHT22;30418;51.45933468;7.33152330;2023-07-29T00:07:56;23.10;77.20
9544;DHT22;30418;51.45933468;7.33152330;2023-07-29T00:10:25;23.10;77.30
9544;DHT22;30418;51.45933468;7.33152330;2023-07-29T00:12:55;23.10;77.30
9544;DHT22;30418;51.45933468;7.33152330;2023-07-29T00:15:23;23.10;77.40
9544;DHT22;30418;51.45933468;7.33152330;2023-07-29T00:17:52;23.10;77.40
9544;DHT22;30418;51.45933468;7.33152330;2023-07-29T00:20:22;23.10;77.40
9544;DHT22;30418;51.45933468;7.33152330;2023-07-29T00:22:51;23.10;77.50
9544;DHT22;30418;51.45933468;7.33152330;2023-07-29T00:25:21;23.10;77.50
9544;DHT22;30418;51.45933468;7.33152330;2023-07-29T00:27:50;23.10;77.50
9544;DHT22;30418;51.45933468;7.33152330;2023-07-29T00:30:21;23.10;77.50
9544;DHT22;30418;51.45933468;7.33152330;2023-07-29T00:32:49;23.00;77.40
9544;DHT22;30418;51.45933468;7.33152330;2023-07-29T00:35:18;23.00;77.40
9544;DHT22;30418;51.45933468;7.33152330;2023-07-29T00:37:48;23.00;77.40
9544;DHT22;30418;51.45933468;7.33152330;2023-07-29T00:40:21;23.00;77.40
9544;DHT22;30418;51.45933468;7.33152330;2023-07-29T00:42:50;23.00;77.40
9544;DHT22;30418;51.45933468;7.33152330;2023-07-29T00:45:19;23.00;77.30
9544;DHT22;30418;51.45933468;7.33152330;2023-07-29T00:47:48;23.00;77.20
9544;DHT22;30418;51.45933468;7.33152330;2023-07-29T00:50:16;23.00;77.20
9544;DHT22;30418;51.45933468;7.33152330;2023-07-29T00:52:45;23.00;77.30
9544;DHT22;30418;51.45933468;7.33152330;2023-07-29T00:55:16;23.00;77.10
9544;DHT22;30418;51.45933468;7.33152330;2023-07-29T00:57:47;23.00;77.20
9544;DHT22;30418;51.45933468;7.33152330;2023-07-29T01:00:19;22.90;77.10
9544;DHT22;30418;51.45933468;7.33152330;2023-07-29T01:02:48;23.00;78.10
9544;DHT22;30418;51.45933468;7.33152330;2023-07-29T01:05:18;23.00;77.20
9544;DHT22;30418;51.45933468;7.33152330;2023-07-29T01:07:51;22.90;77.10
9544;DHT22;30418;51.45933468;7.33152330;2023-07-29T01:10:32;22.90;77.30
9544;DHT22;30418;51.45933468;7.33152330;2023-07-29T01:13:11;22.90;77.40
9544;DHT22;30418;51.45933468;7.33152330;2023-07-29T01:15:48;22.90;77.40
9544;DHT22;30418;51.45933468;7.33152330;2023-07-29T01:18:23;22.90;77.40
9544;DHT22;30418;51.45933468;7.33152330;2023-07-29T01:20:57;22.90;77.40
9544;DHT22;30418;51.45933468;7.33152330;2023-07-29T01:23:31;22.90;77.40
9544;DHT22;30418;51.45933468;7.33152330;2023-07-29T01:26:00;22.90;77.40
9544;DHT22;30418;51.45933468;7.33152330;2023-07-29T01:28:30;22.90;77.30
9544;DHT22;30418;51.45933468;7.33152330;2023-07-29T01:31:02;22.90;77.40
9544;DHT22;30418;51.45933468;7.33152330;2023-07-29T01:33:40;22.90;77.40
9544;DHT22;30418;51.45933468;7.33152330;2023-07-29T01:36:15;22.80;77.30
9544;DHT22;30418;51.45933468;7.33152330;2023-07-29T01:38:48;22.80;77.30
9544;DHT22;30418;51.45933468;7.33152330;2023-07-29T01:41:20;22.90;77.40
9544;DHT22;30418;51.45933468;7.33152330;2023-07-29T01:43:50;22.80;77.20
9544;DHT22;30418;51.45933468;7.33152330;2023-07-29T01:46:19;22.80;78.10
9544;DHT22;30418;51.45933468;7.33152330;2023-07-29T01:48:48;22.80;77.20
9544;DHT22;30418;51.45933468;7.33152330;2023-07-29T01:51:16;22.80;77.20
9544;DHT22;30418;51.45933468;7.33152330;2023-07-29T01:53:45;22.80;77.20
9544;DHT22;30418;51.45933468;7.33152330;2023-07-29T01:56:15;22.80;77.20
9544;DHT22;30418;51.45933468;7.33152330;2023-07-29T01:58:52;22.80;77.20
9544;DHT22;30418;51.45933468;7.33152330;2023-07-29T02:01:20;22.80;77.20
9544;DHT22;30418;51.45933468;7.33152330;2023-07-29T02:03:49;22.80;77.20
9544;DHT22;30418;51.45933468;7.33152330;2023-07-29T02:06:23;22.70;77.00
9544;DHT22;30418;51.45933468;7.33152330;2023-07-29T02:08:55;22.80;77.10
9544;DHT22;30418;51.45933468;7.33152330;2023-07-29T02:11:25;22.80;77.20
9544;DHT22;30418;51.45933468;7.33152330;2023-07-29T02:13:57;22.70;77.10
9544;DHT22;30418;51.45933468;7.33152330;2023-07-29T02:16:26;22.70;77.00
9544;DHT22;30418;51.45933468;7.33152330;2023-07-29T02:18:55;22.70;77.10
9544;DHT22;30418;51.45933468;7.33152330;2023-07-29T02:21:23;22.70;77.10
9544;DHT22;30418;51.45933468;7.33152330;2023-07-29T02:23:52;22.70;77.10
9544;DHT22;30418;51.45933468;7.33152330;2023-07-29T02:26:20;22.70;77.10
9544;DHT22;30418;51.45933468;7.33152330;2023-07-29T02:28:51;22.70;77.10
9544;DHT22;30418;51.45933468;7.33152330;2023-07-29T02:31:21;22.70;77.10
9544;DHT22;30418;51.45933468;7.33152330;2023-07-29T02:33:51;22.70;77.20
9544;DHT22;30418;51.45933468;7.33152330;2023-07-29T02:36:21;22.60;77.10
9544;DHT22;30418;51.45933468;7.33152330;2023-07-29T02:38:50;22.60;77.10
9544;DHT22;30418;51.45933468;7.33152330;2023-07-29T02:41:19;22.70;77.20
9544;DHT22;30418;51.45933468;7.33152330;2023-07-29T02:43:48;22.70;77.20
9544;DHT22;30418;51.45933468;7.33152330;2023-07-29T02:46:19;22.70;77.30
9544;DHT22;30418;51.45933468;7.33152330;2023-07-29T02:48:49;22.60;77.10
9544;DHT22;30418;51.45933468;7.33152330;2023-07-29T02:51:18;22.60;77.20
9544;DHT22;30418;51.45933468;7.33152330;2023-07-29T02:53:47;22.60;77.20
9544;DHT22;30418;51.45933468;7.33152330;2023-07-29T02:56:15;22.60;77.20
9544;DHT22;30418;51.45933468;7.33152330;2023-07-29T02:58:44;22.60;77.20
9544;DHT22;30418;51.45933468;7.33152330;2023-07-29T03:01:17;22.70;77.40
9544;DHT22;30418;51.45933468;7.33152330;2023-07-29T03:03:46;22.70;77.50
9544;DHT22;30418;51.45933468;7.33152330;2023-07-29T03:06:14;22.60;77.20
9544;DHT22;30418;51.45933468;7.33152330;2023-07-29T03:08:43;22.70;77.40
9544;DHT22;30418;51.45933468;7.33152330;2023-07-29T03:11:13;22.60;77.30
9544;DHT22;30418;51.45933468;7.33152330;2023-07-29T03:13:43;22.60;77.30
9544;DHT22;30418;51.45933468;7.33152330;2023-07-29T03:16:13;22.60;77.40
9544;DHT22;30418;51.45933468;7.33152330;2023-07-29T03:18:51;22.60;77.40
9544;DHT22;30418;51.45933468;7.33152330;2023-07-29T03:21:19;22.60;77.40
9544;DHT22;30418;51.45933468;7.33152330;2023-07-29T03:23:48;22.60;77.40
9544;DHT22;30418;51.45933468;7.33152330;2023-07-29T03:26:16;22.60;77.50
9544;DHT22;30418;51.45933468;7.33152330;2023-07-29T03:28:46;22.60;77.50
9544;DHT22;30418;51.45933468;7.33152330;2023-07-29T03:31:14;22.60;77.50
9544;DHT22;30418;51.45933468;7.33152330;2023-07-29T03:33:43;22.60;77.50
9544;DHT22;30418;51.45933468;7.33152330;2023-07-29T03:36:14;22.60;77.50
9544;DHT22;30418;51.45933468;7.33152330;2023-07-29T03:38:43;22.60;77.50
9544;DHT22;30418;51.45933468;7.33152330;2023-07-29T03:41:12;22.60;77.50
9544;DHT22;30418;51.45933468;7.33152330;2023-07-29T03:43:41;22.60;77.60
9544;DHT22;30418;51.45933468;7.33152330;2023-07-29T03:46:09;22.60;77.60
9544;DHT22;30418;51.45933468;7.33152330;2023-07-29T03:48:40;22.60;77.60
9544;DHT22;30418;51.45933468;7.33152330;2023-07-29T03:51:09;22.60;77.60
9544;DHT22;30418;51.45933468;7.33152330;2023-07-29T03:53:39;22.60;77.60
9544;DHT22;30418;51.45933468;7.33152330;2023-07-29T03:56:08;22.60;77.70
9544;DHT22;30418;51.45933468;7.33152330;2023-07-29T03:58:36;22.60;77.70
9544;DHT22;30418;51.45933468;7.33152330;2023-07-29T04:01:05;22.60;78.50
9544;DHT22;30418;51.45933468;7.33152330;2023-07-29T04:03:34;22.60;77.70
9544;DHT22;30418;51.45933468;7.33152330;2023-07-29T04:06:03;22.60;77.70
9544;DHT22;30418;51.45933468;7.33152330;2023-07-29T04:08:31;22.60;77.70
9544;DHT22;30418;51.45933468;7.33152330;2023-07-29T04:11:01;22.60;77.60
9544;DHT22;30418;51.45933468;7.33152330;2023-07-29T04:13:30;22.50;77.60
9544;DHT22;30418;51.45933468;7.33152330;2023-07-29T04:15:58;22.60;77.70
9544;DHT22;30418;51.45933468;7.33152330;2023-07-29T04:18:27;22.60;77.80
9544;DHT22;30418;51.45933468;7.33152330;2023-07-29T04:20:56;22.60;77.70
9544;DHT22;30418;51.45933468;7.33152330;2023-07-29T04:23:25;22.60;77.80
9544;DHT22;30418;51.45933468;7.33152330;2023-07-29T04:25:53;22.60;77.80
9544;DHT22;30418;51.45933468;7.33152330;2023-07-29T04:28:23;22.60;77.90
9544;DHT22;30418;51.45933468;7.33152330;2023-07-29T04:30:52;22.50;77.90
9544;DHT22;30418;51.45933468;7.33152330;2023-07-29T04:33:22;22.50;77.90
9544;DHT22;30418;51.45933468;7.33152330;2023-07-29T04:35:50;22.50;77.80
9544;DHT22;30418;51.45933468;7.33152330;2023-07-29T04:38:19;22.60;78.00
9544;DHT22;30418;51.45933468;7.33152330;2023-07-29T04:40:48;22.50;78.00
9544;DHT22;30418;51.45933468;7.33152330;2023-07-29T04:43:17;22.50;78.10
9544;DHT22;30418;51.45933468;7.33152330;2023-07-29T04:45:47;22.60;78.10
9544;DHT22;30418;51.45933468;7.33152330;2023-07-29T04:48:16;22.60;78.20
9544;DHT22;30418;51.45933468;7.33152330;2023-07-29T04:50:44;22.50;78.10
9544;DHT22;30418;51.45933468;7.33152330;2023-07-29T04:53:13;22.60;78.20
9544;DHT22;30418;51.45933468;7.33152330;2023-07-29T04:55:42;22.50;78.00
9544;DHT22;30418;51.45933468;7.33152330;2023-07-29T04:58:11;22.60;78.10
9544;DHT22;30418;51.45933468;7.33152330;2023-07-29T05:00:39;22.50;78.10
9544;DHT22;30418;51.45933468;7.33152330;2023-07-29T05:03:09;22.60;78.10
9544;DHT22;30418;51.45933468;7.33152330;2023-07-29T05:05:38;22.50;78.10
9544;DHT22;30418;51.45933468;7.33152330;2023-07-29T05:08:06;22.50;78.10
9544;DHT22;30418;51.45933468;7.33152330;2023-07-29T05:10:35;22.50;78.00
9544;DHT22;30418;51.45933468;7.33152330;2023-07-29T05:13:04;22.50;78.10
9544;DHT22;30418;51.45933468;7.33152330;2023-07-29T05:15:32;22.50;78.00
9544;DHT22;30418;51.45933468;7.33152330;2023-07-29T05:18:01;22.50;78.00
9544;DHT22;30418;51.45933468;7.33152330;2023-07-29T05:20:31;22.50;78.10
9544;DHT22;30418;51.45933468;7.33152330;2023-07-29T05:23:01;22.50;78.20
9544;DHT22;30418;51.45933468;7.33152330;2023-07-29T05:25:29;22.40;78.10
9544;DHT22;30418;51.45933468;7.33152330;2023-07-29T05:27:58;22.40;78.10
9544;DHT22;30418;51.45933468;7.33152330;2023-07-29T05:30:27;22.40;79.00
9544;DHT22;30418;51.45933468;7.33152330;2023-07-29T05:32:58;22.40;78.40
9544;DHT22;30418;51.45933468;7.33152330;2023-07-29T05:35:27;22.40;78.40
9544;DHT22;30418;51.45933468;7.33152330;2023-07-29T05:37:57;22.40;78.40
9544;DHT22;30418;51.45933468;7.33152330;2023-07-29T05:40:26;22.40;78.40
9544;DHT22;30418;51.45933468;7.33152330;2023-07-29T05:42:54;22.40;78.40
9544;DHT22;30418;51.45933468;7.33152330;2023-07-29T05:45:23;22.40;78.40
9544;DHT22;30418;51.45933468;7.33152330;2023-07-29T05:47:52;22.40;78.40
9544;DHT22;30418;51.45933468;7.33152330;2023-07-29T05:50:21;22.40;78.50
9544;DHT22;30418;51.45933468;7.33152330;2023-07-29T05:52:50;22.50;78.60
9544;DHT22;30418;51.45933468;7.33152330;2023-07-29T05:55:19;22.50;78.90
9544;DHT22;30418;51.45933468;7.33152330;2023-07-29T05:57:49;22.40;78.50
9544;DHT22;30418;51.45933468;7.33152330;2023-07-29T06:00:18;22.40;78.60
9544;DHT22;30418;51.45933468;7.33152330;2023-07-29T06:02:46;22.50;78.50
9544;DHT22;30418;51.45933468;7.33152330;2023-07-29T06:05:19;22.50;78.40
9544;DHT22;30418;51.45933468;7.33152330;2023-07-29T06:07:48;22.40;78.30
9544;DHT22;30418;51.45933468;7.33152330;2023-07-29T06:10:18;22.40;78.30
9544;DHT22;30418;51.45933468;7.33152330;2023-07-29T06:12:47;22.50;78.50
9544;DHT22;30418;51.45933468;7.33152330;2023-07-29T06:15:15;22.40;78.30
9544;DHT22;30418;51.45933468;7.33152330;2023-07-29T06:17:44;22.50;78.30
9544;DHT22;30418;51.45933468;7.33152330;2023-07-29T06:20:13;22.50;78.30
9544;DHT22;30418;51.45933468;7.33152330;2023-07-29T06:22:42;22.40;78.10
9544;DHT22;30418;51.45933468;7.33152330;2023-07-29T06:25:10;22.40;78.20
9544;DHT22;30418;51.45933468;7.33152330;2023-07-29T06:27:41;22.30;77.90
9544;DHT22;30418;51.45933468;7.33152330;2023-07-29T06:30:10;22.40;77.80
9544;DHT22;30418;51.45933468;7.33152330;2023-07-29T06:32:38;22.30;77.40
9544;DHT22;30418;51.45933468;7.33152330;2023-07-29T06:35:07;22.30;77.30
9544;DHT22;30418;51.45933468;7.33152330;2023-07-29T06:37:36;22.30;77.00
9544;DHT22;30418;51.45933468;7.33152330;2023-07-29T06:40:05;22.30;77.00
9544;DHT22;30418;51.45933468;7.33152330;2023-07-29T06:42:35;22.30;76.80
9544;DHT22;30418;51.45933468;7.33152330;2023-07-29T06:45:06;22.20;76.70
9544;DHT22;30418;51.45933468;7.33152330;2023-07-29T06:47:36;22.20;76.40
9544;DHT22;30418;51.45933468;7.33152330;2023-07-29T06:50:05;22.20;76.30
9544;DHT22;30418;51.45933468;7.33152330;2023-07-29T06:52:34;22.10;76.10
9544;DHT22;30418;51.45933468;7.33152330;2023-07-29T06:55:04;22.10;76.10
9544;DHT22;30418;51.45933468;7.33152330;2023-07-29T06:57:32;22.10;76.10
9544;DHT22;30418;51.45933468;7.33152330;2023-07-29T07:00:01;22.10;76.10
9544;DHT22;30418;51.45933468;7.33152330;2023-07-29T07:02:31;22.10;75.90
9544;DHT22;30418;51.45933468;7.33152330;2023-07-29T07:05:00;22.00;75.80
9544;DHT22;30418;51.45933468;7.33152330;2023-07-29T07:07:28;22.00;75.90
9544;DHT22;30418;51.45933468;7.33152330;2023-07-29T07:09:57;22.00;75.90
9544;DHT22;30418;51.45933468;7.33152330;2023-07-29T07:12:28;22.00;75.90
9544;DHT22;30418;51.45933468;7.33152330;2023-07-29T07:14:56;22.00;75.90
9544;DHT22;30418;51.45933468;7.33152330;2023-07-29T07:17:24;22.00;76.00
9544;DHT22;30418;51.45933468;7.33152330;2023-07-29T07:19:54;22.00;76.20
9544;DHT22;30418;51.45933468;7.33152330;2023-07-29T07:22:23;22.10;76.20
9544;DHT22;30418;51.45933468;7.33152330;2023-07-29T07:24:52;22.10;76.10
9544;DHT22;30418;51.45933468;7.33152330;2023-07-29T07:27:20;22.10;76.10
9544;DHT22;30418;51.45933468;7.33152330;2023-07-29T07:29:49;22.10;76.00
9544;DHT22;30418;51.45933468;7.33152330;2023-07-29T07:32:18;22.10;76.00
9544;DHT22;30418;51.45933468;7.33152330;2023-07-29T07:34:46;22.10;76.00
9544;DHT22;30418;51.45933468;7.33152330;2023-07-29T07:37:16;22.20;76.00
9544;DHT22;30418;51.45933468;7.33152330;2023-07-29T07:39:45;22.10;75.90
9544;DHT22;30418;51.45933468;7.33152330;2023-07-29T07:42:14;22.20;76.10
9544;DHT22;30418;51.45933468;7.33152330;2023-07-29T07:44:42;22.20;76.10
9544;DHT22;30418;51.45933468;7.33152330;2023-07-29T07:47:11;22.20;76.10
9544;DHT22;30418;51.45933468;7.33152330;2023-07-29T07:49:40;22.30;76.10
9544;DHT22;30418;51.45933468;7.33152330;2023-07-29T07:52:09;22.30;75.90
9544;DHT22;30418;51.45933468;7.33152330;2023-07-29T07:54:39;22.30;75.50
9544;DHT22;30418;51.45933468;7.33152330;2023-07-29T07:57:07;22.30;75.20
9544;DHT22;30418;51.45933468;7.33152330;2023-07-29T07:59:36;22.30;75.50
9544;DHT22;30418;51.45933468;7.33152330;2023-07-29T08:02:05;22.30;75.60
9544;DHT22;30418;51.45933468;7.33152330;2023-07-29T08:04:33;22.40;75.90
9544;DHT22;30418;51.45933468;7.33152330;2023-07-29T08:07:02;22.40;75.60
9544;DHT22;30418;51.45933468;7.33152330;2023-07-29T08:09:30;22.40;75.30
9544;DHT22;30418;51.45933468;7.33152330;2023-07-29T08:12:00;22.50;75.30
9544;DHT22;30418;51.45933468;7.33152330;2023-07-29T08:14:29;22.50;74.80
9544;DHT22;30418;51.45933468;7.33152330;2023-07-29T08:16:57;22.60;74.80
9544;DHT22;30418;51.45933468;7.33152330;2023-07-29T08:19:26;22.60;74.60
9544;DHT22;30418;51.45933468;7.33152330;2023-07-29T08:21:55;22.60;74.50
9544;DHT22;30418;51.45933468;7.33152330;2023-07-29T08:24:23;22.60;74.20
9544;DHT22;30418;51.45933468;7.33152330;2023-07-29T08:26:52;22.60;74.00
9544;DHT22;30418;51.45933468;7.33152330;2023-07-29T08:29:22;22.60;73.90
9544;DHT22;30418;51.45933468;7.33152330;2023-07-29T08:31:51;22.60;73.70
9544;DHT22;30418;51.45933468;7.33152330;2023-07-29T08:34:19;22.60;73.70
9544;DHT22;30418;51.45933468;7.33152330;2023-07-29T08:36:48;22.70;74.00
9544;DHT22;30418;51.45933468;7.33152330;2023-07-29T08:39:16;22.70;74.20
9544;DHT22;30418;51.45933468;7.33152330;2023-07-29T08:41:49;22.70;74.00
9544;DHT22;30418;51.45933468;7.33152330;2023-07-29T08:44:26;22.80;73.90
9544;DHT22;30418;51.45933468;7.33152330;2023-07-29T08:46:59;22.80;74.50
9544;DHT22;30418;51.45933468;7.33152330;2023-07-29T08:49:30;22.80;74.00
9544;DHT22;30418;51.45933468;7.33152330;2023-07-29T08:51:59;22.90;74.00
9544;DHT22;30418;51.45933468;7.33152330;2023-07-29T08:54:29;22.90;73.90
9544;DHT22;30418;51.45933468;7.33152330;2023-07-29T08:56:58;23.00;74.00
9544;DHT22;30418;51.45933468;7.33152330;2023-07-29T08:59:28;23.00;73.80
9544;DHT22;30418;51.45933468;7.33152330;2023-07-29T09:01:59;23.10;73.20
9544;DHT22;30418;51.45933468;7.33152330;2023-07-29T09:04:27;23.10;72.90
9544;DHT22;30418;51.45933468;7.33152330;2023-07-29T09:06:56;23.10;72.90
9544;DHT22;30418;51.45933468;7.33152330;2023-07-29T09:09:25;23.20;73.00
9544;DHT22;30418;51.45933468;7.33152330;2023-07-29T09:11:54;23.20;72.90
9544;DHT22;30418;51.45933468;7.33152330;2023-07-29T09:14:23;23.30;73.10
9544;DHT22;30418;51.45933468;7.33152330;2023-07-29T09:16:53;23.30;72.90
9544;DHT22;30418;51.45933468;7.33152330;2023-07-29T09:19:25;23.40;72.60
9544;DHT22;30418;51.45933468;7.33152330;2023-07-29T09:21:53;23.50;72.20
9544;DHT22;30418;51.45933468;7.33152330;2023-07-29T09:24:22;23.50;72.20
9544;DHT22;30418;51.45933468;7.33152330;2023-07-29T09:26:51;23.60;72.10
9544;DHT22;30418;51.45933468;7.33152330;2023-07-29T09:29:22;23.60;71.80
9544;DHT22;30418;51.45933468;7.33152330;2023-07-29T09:31:53;23.60;71.80
9544;DHT22;30418;51.45933468;7.33152330;2023-07-29T09:34:21;23.70;71.70
9544;DHT22;30418;51.45933468;7.33152330;2023-07-29T09:36:50;23.70;71.80
9544;DHT22;30418;51.45933468;7.33152330;2023-07-29T09:39:23;23.70;71.60
9544;DHT22;30418;51.45933468;7.33152330;2023-07-29T09:41:51;23.80;71.30
9544;DHT22;30418;51.45933468;7.33152330;2023-07-29T09:44:20;23.80;71.00
9544;DHT22;30418;51.45933468;7.33152330;2023-07-29T09:46:49;23.80;70.60
9544;DHT22;30418;51.45933468;7.33152330;2023-07-29T09:49:19;23.90;71.00
9544;DHT22;30418;51.45933468;7.33152330;2023-07-29T09:51:48;23.90;70.70
9544;DHT22;30418;51.45933468;7.33152330;2023-07-29T09:54:16;23.90;71.00
9544;DHT22;30418;51.45933468;7.33152330;2023-07-29T09:56:45;23.90;70.70
9544;DHT22;30418;51.45933468;7.33152330;2023-07-29T09:59:19;24.00;71.20
9544;DHT22;30418;51.45933468;7.33152330;2023-07-29T10:01:47;24.00;70.90
9544;DHT22;30418;51.45933468;7.33152330;2023-07-29T10:04:18;24.10;70.80
9544;DHT22;30418;51.45933468;7.33152330;2023-07-29T10:06:47;24.10;70.70
9544;DHT22;30418;51.45933468;7.33152330;2023-07-29T10:09:17;24.20;70.50
9544;DHT22;30418;51.45933468;7.33152330;2023-07-29T10:11:47;24.20;70.20
9544;DHT22;30418;51.45933468;7.33152330;2023-07-29T10:14:18;24.20;70.00
9544;DHT22;30418;51.45933468;7.33152330;2023-07-29T10:16:47;24.20;70.90
9544;DHT22;30418;51.45933468;7.33152330;2023-07-29T10:19:19;24.20;70.00
9544;DHT22;30418;51.45933468;7.33152330;2023-07-29T10:21:48;24.20;70.00
9544;DHT22;30418;51.45933468;7.33152330;2023-07-29T10:24:23;24.20;69.60
9544;DHT22;30418;51.45933468;7.33152330;2023-07-29T10:26:57;24.20;70.10
9544;DHT22;30418;51.45933468;7.33152330;2023-07-29T10:29:31;24.20;69.40
9544;DHT22;30418;51.45933468;7.33152330;2023-07-29T10:32:02;24.20;69.60
9544;DHT22;30418;51.45933468;7.33152330;2023-07-29T10:34:33;24.20;70.80
9544;DHT22;30418;51.45933468;7.33152330;2023-07-29T10:37:03;24.20;70.10
9544;DHT22;30418;51.45933468;7.33152330;2023-07-29T10:39:38;24.30;70.50
9544;DHT22;30418;51.45933468;7.33152330;2023-07-29T10:42:07;24.40;70.10
9544;DHT22;30418;51.45933468;7.33152330;2023-07-29T10:44:46;24.40;70.20
9544;DHT22;30418;51.45933468;7.33152330;2023-07-29T10:47:17;24.50;69.70
9544;DHT22;30418;51.45933468;7.33152330;2023-07-29T10:49:51;24.60;70.20
9544;DHT22;30418;51.45933468;7.33152330;2023-07-29T10:52:40;24.70;70.10
9544;DHT22;30418;51.45933468;7.33152330;2023-07-29T10:55:26;24.80;69.70
9544;DHT22;30418;51.45933468;7.33152330;2023-07-29T10:58:07;24.90;69.40
9544;DHT22;30418;51.45933468;7.33152330;2023-07-29T11:00:38;25.00;69.10
9544;DHT22;30418;51.45933468;7.33152330;2023-07-29T11:03:07;25.10;69.40
9544;DHT22;30418;51.45933468;7.33152330;2023-07-29T11:05:54;25.10;69.10
9544;DHT22;30418;51.45933468;7.33152330;2023-07-29T11:08:26;25.20;68.00
9544;DHT22;30418;51.45933468;7.33152330;2023-07-29T11:11:06;25.20;68.70
9544;DHT22;30418;51.45933468;7.33152330;2023-07-29T11:13:37;25.30;67.90
9544;DHT22;30418;51.45933468;7.33152330;2023-07-29T11:16:06;25.30;68.40
9544;DHT22;30418;51.45933468;7.33152330;2023-07-29T11:18:35;25.30;68.20
9544;DHT22;30418;51.45933468;7.33152330;2023-07-29T11:21:05;25.30;68.00
9544;DHT22;30418;51.45933468;7.33152330;2023-07-29T11:23:35;25.40;67.70
9544;DHT22;30418;51.45933468;7.33152330;2023-07-29T11:26:05;25.40;67.80
9544;DHT22;30418;51.45933468;7.33152330;2023-07-29T11:28:38;25.40;67.40
9544;DHT22;30418;51.45933468;7.33152330;2023-07-29T11:31:07;25.40;67.00
9544;DHT22;30418;51.45933468;7.33152330;2023-07-29T11:33:39;25.40;67.10
9544;DHT22;30418;51.45933468;7.33152330;2023-07-29T11:36:19;25.40;66.80
9544;DHT22;30418;51.45933468;7.33152330;2023-07-29T11:38:47;25.50;66.70
9544;DHT22;30418;51.45933468;7.33152330;2023-07-29T11:41:19;25.50;67.50
9544;DHT22;30418;51.45933468;7.33152330;2023-07-29T11:43:49;25.60;67.40
9544;DHT22;30418;51.45933468;7.33152330;2023-07-29T11:46:21;25.60;67.30
9544;DHT22;30418;51.45933468;7.33152330;2023-07-29T11:48:51;25.70;67.20
9544;DHT22;30418;51.45933468;7.33152330;2023-07-29T11:51:23;25.70;66.80
9544;DHT22;30418;51.45933468;7.33152330;2023-07-29T11:53:54;25.70;65.80
9544;DHT22;30418;51.45933468;7.33152330;2023-07-29T11:56:23;25.80;65.90
9544;DHT22;30418;51.45933468;7.33152330;2023-07-29T11:58:53;25.70;65.80
9544;DHT22;30418;51.45933468;7.33152330;2023-07-29T12:01:23;25.70;65.80
9544;DHT22;30418;51.45933468;7.33152330;2023-07-29T12:03:52;25.70;65.80
9544;DHT22;30418;51.45933468;7.33152330;2023-07-29T12:06:22;25.60;65.70
9544;DHT22;30418;51.45933468;7.33152330;2023-07-29T12:08:52;25.60;65.80
9544;DHT22;30418;51.45933468;7.33152330;2023-07-29T12:11:20;25.60;65.70
9544;DHT22;30418;51.45933468;7.33152330;2023-07-29T12:13:49;25.60;65.80
9544;DHT22;30418;51.45933468;7.33152330;2023-07-29T12:16:18;25.60;65.80
9544;DHT22;30418;51.45933468;7.33152330;2023-07-29T12:18:47;25.60;65.80
9544;DHT22;30418;51.45933468;7.33152330;2023-07-29T12:21:19;25.60;66.60
9544;DHT22;30418;51.45933468;7.33152330;2023-07-29T12:23:50;25.60;65.80
9544;DHT22;30418;51.45933468;7.33152330;2023-07-29T12:26:18;25.70;65.80
9544;DHT22;30418;51.45933468;7.33152330;2023-07-29T12:28:47;25.80;65.90
9544;DHT22;30418;51.45933468;7.33152330;2023-07-29T12:31:17;25.80;65.40
9544;DHT22;30418;51.45933468;7.33152330;2023-07-29T12:33:46;25.80;65.20
9544;DHT22;30418;51.45933468;7.33152330;2023-07-29T12:36:16;25.90;65.40
9544;DHT22;30418;51.45933468;7.33152330;2023-07-29T12:38:45;25.90;65.40
9544;DHT22;30418;51.45933468;7.33152330;2023-07-29T12:41:15;25.90;65.40
9544;DHT22;30418;51.45933468;7.33152330;2023-07-29T12:43:45;26.00;65.30
9544;DHT22;30418;51.45933468;7.33152330;2023-07-29T12:46:13;26.10;65.20
9544;DHT22;30418;51.45933468;7.33152330;2023-07-29T12:48:42;26.10;64.90
9544;DHT22;30418;51.45933468;7.33152330;2023-07-29T12:51:10;26.20;65.10
9544;DHT22;30418;51.45933468;7.33152330;2023-07-29T12:53:39;26.20;64.40
9544;DHT22;30418;51.45933468;7.33152330;2023-07-29T12:56:08;26.30;64.20
9544;DHT22;30418;51.45933468;7.33152330;2023-07-29T12:58:38;26.30;64.00
9544;DHT22;30418;51.45933468;7.33152330;2023-07-29T13:01:06;26.30;64.40
9544;DHT22;30418;51.45933468;7.33152330;2023-07-29T13:03:36;26.30;63.50
9544;DHT22;30418;51.45933468;7.33152330;2023-07-29T13:06:05;26.40;63.40
9544;DHT22;30418;51.45933468;7.33152330;2023-07-29T13:08:34;26.40;63.60
9544;DHT22;30418;51.45933468;7.33152330;2023-07-29T13:11:02;26.40;63.50
9544;DHT22;30418;51.45933468;7.33152330;2023-07-29T13:13:32;26.50;63.50
9544;DHT22;30418;51.45933468;7.33152330;2023-07-29T13:16:02;26.50;63.40
9544;DHT22;30418;51.45933468;7.33152330;2023-07-29T13:18:31;26.50;63.30
9544;DHT22;30418;51.45933468;7.33152330;2023-07-29T13:21:00;26.60;63.50
9544;DHT22;30418;51.45933468;7.33152330;2023-07-29T13:23:29;26.70;63.20
9544;DHT22;30418;51.45933468;7.33152330;2023-07-29T13:25:57;26.70;62.80
9544;DHT22;30418;51.45933468;7.33152330;2023-07-29T13:28:26;26.80;62.50
9544;DHT22;30418;51.45933468;7.33152330;2023-07-29T13:30:55;26.90;62.40
9544;DHT22;30418;51.45933468;7.33152330;2023-07-29T13:33:25;26.90;62.10
9544;DHT22;30418;51.45933468;7.33152330;2023-07-29T13:35:54;26.90;61.70
9544;DHT22;30418;51.45933468;7.33152330;2023-07-29T13:38:22;26.80;61.60
9544;DHT22;30418;51.45933468;7.33152330;2023-07-29T13:40:51;26.80;61.70
9544;DHT22;30418;51.45933468;7.33152330;2023-07-29T13:43:20;26.80;61.90
9544;DHT22;30418;51.45933468;7.33152330;2023-07-29T13:45:48;26.90;62.20
9544;DHT22;30418;51.45933468;7.33152330;2023-07-29T13:48:17;26.90;61.80